createdAt,value
2022-11-15T00:00:22.249Z,975.58
2022-11-15T00:00:53.009Z,975.52
2022-11-15T00:01:23.100Z,975.52
2022-11-15T00:01:54.590Z,975.52
2022-11-15T00:02:25.508Z,975.68
2022-11-15T00:02:58.050Z,975.68
2022-11-15T00:03:59.798Z,975.58
2022-11-15T00:04:30.144Z,975.41
2022-11-15T00:05:01.106Z,975.41
2022-11-15T00:05:31.132Z,975.79
2022-11-15T00:06:20.185Z,975.79
2022-11-15T00:06:33.403Z,975.52
2022-11-15T00:07:04.335Z,975.52
2022-11-15T00:07:55.582Z,975.58
2022-11-15T00:08:07.205Z,975.58
2022-11-15T00:08:39.372Z,975.52
2022-11-15T00:09:09.442Z,975.52
2022-11-15T00:09:44.892Z,975.52
2022-11-15T00:10:23.080Z,975.52
2022-11-15T00:10:41.249Z,975.58
2022-11-15T00:11:12.431Z,975.58
2022-11-15T00:11:43.452Z,975.52
2022-11-15T00:12:14.431Z,975.52
2022-11-15T00:12:45.764Z,975.58
2022-11-15T00:13:17.746Z,975.58
2022-11-15T00:13:49.634Z,975.58
2022-11-15T00:14:35.831Z,975.52
2022-11-15T00:14:50.285Z,975.52
2022-11-15T00:15:20.686Z,975.52
2022-11-15T00:15:51.304Z,975.68
2022-11-15T00:16:22.878Z,975.68
2022-11-15T00:17:24.541Z,975.52
2022-11-15T00:17:55.366Z,975.41
2022-11-15T00:18:27.268Z,975.52
2022-11-15T00:18:59.729Z,975.52
2022-11-15T00:19:30.113Z,975.31
2022-11-15T00:20:01.000Z,975.31
2022-11-15T00:20:30.777Z,975.41
2022-11-15T00:21:01.568Z,975.41
2022-11-15T00:21:32.225Z,975.58
2022-11-15T00:22:38.611Z,975.58
2022-11-15T00:22:51.712Z,975.52
2022-11-15T00:23:05.486Z,975.52
2022-11-15T00:23:36.179Z,975.41
2022-11-15T00:24:08.776Z,975.41
2022-11-15T00:24:44.923Z,975.58
2022-11-15T00:25:15.338Z,975.58
2022-11-15T00:25:50.908Z,975.52
2022-11-15T00:26:12.306Z,975.52
2022-11-15T00:26:42.632Z,975.58
2022-11-15T00:27:13.074Z,975.58
2022-11-15T00:27:44.570Z,975.52
2022-11-15T00:28:15.409Z,975.52
2022-11-15T00:28:48.101Z,975.52
2022-11-15T00:29:19.944Z,975.52
2022-11-15T00:29:50.261Z,975.58
2022-11-15T00:30:21.158Z,975.58
2022-11-15T00:30:50.827Z,975.52
2022-11-15T00:31:21.523Z,975.52
2022-11-15T00:31:52.820Z,975.41
2022-11-15T00:32:25.034Z,975.41
2022-11-15T00:32:54.799Z,975.52
2022-11-15T00:33:26.766Z,975.52
2022-11-15T00:33:56.382Z,975.52
2022-11-15T00:34:30.154Z,975.21
2022-11-15T00:35:00.142Z,975.21
2022-11-15T00:35:40.749Z,975.41
2022-11-15T00:36:00.822Z,975.41
2022-11-15T00:36:31.323Z,975.31
2022-11-15T00:37:02.436Z,975.31
2022-11-15T00:37:33.375Z,975.31
2022-11-15T00:38:04.198Z,975.31
2022-11-15T00:38:52.828Z,975.52
2022-11-15T00:39:39.451Z,975.41
2022-11-15T00:40:11.336Z,975.41
2022-11-15T00:40:40.277Z,975.52
2022-11-15T00:41:10.744Z,975.52
2022-11-15T00:41:51.431Z,975.52
2022-11-15T00:42:12.799Z,975.52
2022-11-15T00:42:43.569Z,975.41
2022-11-15T00:43:14.355Z,975.41
2022-11-15T00:43:45.451Z,975.31
2022-11-15T00:44:21.787Z,975.31
2022-11-15T00:44:48.610Z,975.52
2022-11-15T00:45:19.748Z,975.52
2022-11-15T00:45:49.937Z,975.58
2022-11-15T00:46:20.555Z,975.58
2022-11-15T00:46:51.531Z,975.58
2022-11-15T00:47:22.493Z,975.58
2022-11-15T00:47:53.585Z,975.68
2022-11-15T00:48:24.589Z,975.68
2022-11-15T00:48:55.322Z,975.68
2022-11-15T00:49:26.580Z,975.41
2022-11-15T00:49:58.995Z,975.41
2022-11-15T00:50:29.909Z,975.68
2022-11-15T00:51:00.872Z,975.68
2022-11-15T00:51:30.450Z,975.52
2022-11-15T00:52:01.638Z,975.52
2022-11-15T00:52:32.403Z,975.31
2022-11-15T00:53:03.554Z,975.31
2022-11-15T00:53:34.758Z,975.52
2022-11-15T00:54:05.602Z,975.52
2022-11-15T00:54:36.637Z,975.52
2022-11-15T00:55:09.064Z,975.52
2022-11-15T00:55:39.838Z,975.52
2022-11-15T00:56:10.608Z,975.52
2022-11-15T00:56:40.703Z,975.58
2022-11-15T00:57:11.896Z,975.58
2022-11-15T00:57:42.194Z,975.58
2022-11-15T00:58:13.274Z,975.58
2022-11-15T00:58:44.453Z,975.41
2022-11-15T00:59:15.589Z,975.41
2022-11-15T00:59:46.602Z,975.52
2022-11-15T01:00:18.987Z,975.52
2022-11-15T01:00:51.028Z,975.41
2022-11-15T01:01:21.554Z,975.41
2022-11-15T01:01:50.992Z,975.41
2022-11-15T01:02:21.948Z,975.41
2022-11-15T01:02:52.722Z,975.21
2022-11-15T01:03:23.662Z,975.21
2022-11-15T01:04:00.885Z,975.41
2022-11-15T01:04:25.518Z,975.58
2022-11-15T01:04:57.645Z,975.58
2022-11-15T01:05:28.577Z,975.31
2022-11-15T01:05:59.735Z,975.31
2022-11-15T01:06:30.051Z,975.52
2022-11-15T01:07:00.908Z,975.52
2022-11-15T01:07:31.512Z,975.68
2022-11-15T01:08:02.519Z,975.68
2022-11-15T01:08:43.489Z,975.68
2022-11-15T01:09:04.973Z,975.68
2022-11-15T01:09:35.797Z,975.58
2022-11-15T01:10:07.348Z,975.58
2022-11-15T01:10:38.625Z,975.68
2022-11-15T01:11:09.955Z,975.68
2022-11-15T01:11:40.622Z,975.58
2022-11-15T01:12:11.126Z,975.58
2022-11-15T01:12:42.176Z,975.41
2022-11-15T01:13:19.034Z,975.41
2022-11-15T01:13:44.098Z,975.58
2022-11-15T01:14:15.177Z,975.58
2022-11-15T01:14:45.673Z,975.52
2022-11-15T01:15:19.532Z,975.52
2022-11-15T01:15:48.800Z,975.41
2022-11-15T01:16:31.242Z,975.41
2022-11-15T01:16:50.505Z,975.41
2022-11-15T01:17:23.751Z,975.41
2022-11-15T01:18:25.285Z,975.68
2022-11-15T01:18:54.554Z,975.58
2022-11-15T01:19:25.212Z,975.58
2022-11-15T01:19:55.669Z,975.41
2022-11-15T01:20:59.617Z,975.52
2022-11-15T01:21:30.899Z,975.52
2022-11-15T01:22:01.407Z,975.52
2022-11-15T01:22:31.118Z,975.52
2022-11-15T01:23:03.678Z,975.52
2022-11-15T01:23:32.884Z,975.41
2022-11-15T01:24:03.901Z,975.41
2022-11-15T01:24:35.169Z,975.41
2022-11-15T01:25:06.504Z,975.41
2022-11-15T01:25:37.233Z,975.31
2022-11-15T01:26:08.281Z,975.31
2022-11-15T01:26:40.138Z,975.31
2022-11-15T01:27:12.278Z,975.31
2022-11-15T01:27:41.443Z,975.41
2022-11-15T01:28:12.438Z,975.41
2022-11-15T01:28:44.365Z,975.41
2022-11-15T01:29:14.997Z,975.41
2022-11-15T01:29:46.339Z,975.21
2022-11-15T01:30:49.237Z,975.21
2022-11-15T01:31:19.659Z,975.21
2022-11-15T01:31:50.580Z,975.31
2022-11-15T01:32:21.649Z,975.31
2022-11-15T01:32:51.636Z,975.41
2022-11-15T01:33:22.292Z,975.41
2022-11-15T01:33:53.292Z,975.31
2022-11-15T01:34:24.120Z,975.31
2022-11-15T01:34:55.197Z,975.31
2022-11-15T01:35:26.572Z,975.31
2022-11-15T01:35:57.310Z,975.31
2022-11-15T01:36:29.668Z,975.41
2022-11-15T01:37:16.932Z,975.41
2022-11-15T01:37:31.883Z,975.31
2022-11-15T01:38:01.988Z,975.31
2022-11-15T01:38:31.763Z,975.11
2022-11-15T01:39:03.525Z,975.11
2022-11-15T01:39:34.414Z,975.41
2022-11-15T01:40:05.706Z,975.41
2022-11-15T01:40:36.135Z,975.31
2022-11-15T01:41:07.724Z,975.31
2022-11-15T01:41:38.203Z,975.21
2022-11-15T01:42:11.655Z,975.21
2022-11-15T01:42:41.815Z,975.21
2022-11-15T01:43:12.234Z,975.21
2022-11-15T01:43:42.826Z,975.11
2022-11-15T01:44:13.327Z,975.11
2022-11-15T01:44:44.083Z,975.41
2022-11-15T01:45:17.126Z,975.41
2022-11-15T01:45:46.133Z,975.31
2022-11-15T01:46:17.232Z,975.31
2022-11-15T01:46:51.094Z,975.41
2022-11-15T01:47:20.717Z,975.41
2022-11-15T01:47:51.608Z,975.21
2022-11-15T01:48:22.362Z,975.21
2022-11-15T01:48:52.687Z,975.31
2022-11-15T01:49:41.693Z,975.31
2022-11-15T01:50:25.287Z,975.31
2022-11-15T01:50:56.699Z,975.11
2022-11-15T01:51:26.958Z,975.41
2022-11-15T01:52:34.473Z,975.11
2022-11-15T01:53:01.941Z,975.11
2022-11-15T01:53:32.186Z,975.31
2022-11-15T01:54:02.654Z,975.31
2022-11-15T01:54:32.890Z,975.31
2022-11-15T01:55:04.745Z,975.31
2022-11-15T01:55:34.861Z,975.21
2022-11-15T01:56:05.859Z,975.21
2022-11-15T01:56:37.126Z,975.31
2022-11-15T01:57:08.438Z,975.31
2022-11-15T01:57:39.814Z,975.11
2022-11-15T01:58:12.340Z,975.11
2022-11-15T01:58:42.984Z,975.11
2022-11-15T01:59:12.688Z,975.11
2022-11-15T01:59:43.117Z,975.21
2022-11-15T02:00:15.469Z,975.21
2022-11-15T02:00:45.782Z,975.21
2022-11-15T02:01:16.183Z,975.21
2022-11-15T02:01:47.289Z,975.11
2022-11-15T02:02:50.826Z,975.31
2022-11-15T02:03:27.844Z,975.31
2022-11-15T02:03:52.340Z,975.21
2022-11-15T02:04:22.990Z,975.21
2022-11-15T02:04:53.263Z,975.11
2022-11-15T02:05:25.376Z,975.11
2022-11-15T02:05:55.663Z,975.21
2022-11-15T02:06:26.155Z,975.21
2022-11-15T02:06:59.378Z,975.21
2022-11-15T02:07:28.055Z,975.21
2022-11-15T02:08:01.121Z,975.21
2022-11-15T02:08:31.323Z,975.11
2022-11-15T02:09:01.841Z,975.11
2022-11-15T02:09:31.879Z,975.11
2022-11-15T02:10:23.534Z,975.11
2022-11-15T02:10:33.424Z,975.21
2022-11-15T02:11:14.340Z,975.21
2022-11-15T02:11:35.483Z,975.01
2022-11-15T02:12:12.161Z,975.01
2022-11-15T02:12:37.866Z,975.11
2022-11-15T02:13:08.799Z,975.11
2022-11-15T02:13:40.756Z,975.21
2022-11-15T02:14:12.156Z,975.21
2022-11-15T02:14:41.712Z,975.11
2022-11-15T02:15:13.032Z,975.11
2022-11-15T02:15:43.702Z,975.11
2022-11-15T02:16:32.102Z,975.11
2022-11-15T02:16:45.548Z,975.11
2022-11-15T02:17:16.865Z,975.11
2022-11-15T02:17:48.087Z,975.01
2022-11-15T02:18:18.832Z,975.01
2022-11-15T02:18:51.404Z,975.11
2022-11-15T02:19:22.193Z,975.11
2022-11-15T02:19:52.201Z,975.21
2022-11-15T02:20:22.916Z,975.21
2022-11-15T02:20:53.663Z,975.01
2022-11-15T02:21:24.847Z,975.01
2022-11-15T02:21:55.588Z,975.11
2022-11-15T02:22:26.640Z,974.80
2022-11-15T02:22:58.846Z,974.80
2022-11-15T02:23:28.889Z,975.01
2022-11-15T02:24:01.159Z,975.01
2022-11-15T02:24:31.949Z,975.11
2022-11-15T02:25:02.712Z,975.11
2022-11-15T02:25:33.184Z,975.01
2022-11-15T02:26:03.982Z,975.01
2022-11-15T02:26:34.553Z,975.01
2022-11-15T02:27:05.936Z,975.01
2022-11-15T02:27:36.620Z,975.01
2022-11-15T02:28:25.813Z,975.01
2022-11-15T02:28:38.838Z,975.01
2022-11-15T02:29:10.363Z,975.01
2022-11-15T02:29:41.846Z,975.11
2022-11-15T02:30:13.202Z,975.11
2022-11-15T02:30:42.794Z,974.80
2022-11-15T02:31:13.815Z,974.80
2022-11-15T02:31:44.815Z,974.80
2022-11-15T02:32:15.805Z,974.80
2022-11-15T02:32:47.429Z,974.91
2022-11-15T02:33:28.603Z,974.91
2022-11-15T02:33:48.858Z,974.91
2022-11-15T02:34:21.755Z,974.91
2022-11-15T02:34:52.735Z,974.91
2022-11-15T02:35:22.395Z,974.91
2022-11-15T02:35:53.068Z,974.91
2022-11-15T02:36:23.826Z,974.91
2022-11-15T02:36:55.371Z,974.80
2022-11-15T02:37:25.951Z,975.01
2022-11-15T02:37:57.410Z,975.01
2022-11-15T02:38:28.758Z,974.70
2022-11-15T02:38:59.451Z,974.70
2022-11-15T02:39:31.914Z,974.70
2022-11-15T02:40:02.430Z,974.70
2022-11-15T02:40:34.158Z,974.91
2022-11-15T02:41:02.995Z,974.91
2022-11-15T02:41:33.608Z,975.01
2022-11-15T02:42:04.825Z,975.01
2022-11-15T02:42:36.072Z,974.91
2022-11-15T02:43:08.330Z,974.91
2022-11-15T02:43:37.961Z,974.80
2022-11-15T02:44:08.849Z,974.80
2022-11-15T02:44:41.107Z,974.80
2022-11-15T02:45:12.843Z,974.80
2022-11-15T02:45:42.862Z,974.80
2022-11-15T02:46:13.367Z,974.80
2022-11-15T02:46:43.878Z,974.80
2022-11-15T02:47:14.616Z,974.80
2022-11-15T02:47:45.960Z,974.80
2022-11-15T02:48:17.283Z,974.80
2022-11-15T02:48:48.115Z,974.70
2022-11-15T02:49:18.954Z,974.70
2022-11-15T02:49:49.813Z,974.70
2022-11-15T02:50:22.493Z,974.70
2022-11-15T02:50:52.479Z,974.91
2022-11-15T02:51:23.111Z,974.91
2022-11-15T02:51:53.939Z,975.01
2022-11-15T02:52:25.521Z,975.01
2022-11-15T02:53:13.213Z,974.91
2022-11-15T02:53:27.107Z,974.91
2022-11-15T02:53:58.281Z,974.91
2022-11-15T02:54:28.835Z,974.70
2022-11-15T02:54:59.837Z,974.70
2022-11-15T02:55:32.427Z,974.70
2022-11-15T02:56:02.983Z,974.70
2022-11-15T02:56:32.897Z,974.80
2022-11-15T02:57:03.706Z,974.80
2022-11-15T02:57:34.857Z,974.80
2022-11-15T02:58:05.923Z,974.80
2022-11-15T02:59:08.011Z,974.70
2022-11-15T02:59:38.850Z,974.80
2022-11-15T03:00:10.885Z,974.80
2022-11-15T03:00:42.904Z,974.80
2022-11-15T03:01:13.481Z,974.80
2022-11-15T03:01:43.071Z,974.70
2022-11-15T03:02:14.143Z,974.70
2022-11-15T03:02:44.864Z,974.80
2022-11-15T03:03:15.879Z,974.80
2022-11-15T03:03:47.702Z,974.80
2022-11-15T03:04:18.316Z,974.80
2022-11-15T03:04:48.701Z,974.80
2022-11-15T03:05:52.667Z,974.80
2022-11-15T03:06:23.268Z,974.80
2022-11-15T03:06:53.527Z,974.91
2022-11-15T03:07:23.797Z,974.91
2022-11-15T03:07:59.558Z,974.80
2022-11-15T03:08:25.958Z,974.70
2022-11-15T03:08:57.203Z,974.70
2022-11-15T03:09:28.044Z,974.60
2022-11-15T03:09:59.430Z,974.60
2022-11-15T03:10:30.294Z,974.60
2022-11-15T03:11:02.957Z,974.60
2022-11-15T03:11:33.282Z,974.70
2022-11-15T03:12:03.393Z,974.70
2022-11-15T03:12:33.973Z,974.70
2022-11-15T03:13:05.222Z,974.70
2022-11-15T03:13:36.001Z,974.40
2022-11-15T03:14:07.508Z,974.40
2022-11-15T03:14:37.989Z,974.80
2022-11-15T03:15:09.547Z,974.80
2022-11-15T03:15:39.938Z,974.91
2022-11-15T03:16:12.924Z,974.91
2022-11-15T03:16:43.148Z,974.70
2022-11-15T03:17:13.756Z,974.70
2022-11-15T03:17:44.109Z,974.70
2022-11-15T03:18:14.994Z,974.70
2022-11-15T03:18:45.781Z,974.70
2022-11-15T03:19:17.078Z,974.70
2022-11-15T03:19:48.102Z,974.60
2022-11-15T03:20:19.814Z,974.60
2022-11-15T03:20:50.015Z,974.60
2022-11-15T03:21:23.889Z,974.60
2022-11-15T03:21:52.638Z,974.80
2022-11-15T03:22:23.376Z,974.80
2022-11-15T03:22:54.501Z,974.60
2022-11-15T03:23:25.080Z,974.60
2022-11-15T03:23:55.784Z,974.60
2022-11-15T03:24:39.807Z,974.70
2022-11-15T03:24:58.031Z,974.70
2022-11-15T03:25:28.882Z,974.70
2022-11-15T03:25:59.798Z,974.70
2022-11-15T03:26:32.598Z,974.60
2022-11-15T03:27:03.592Z,974.60
2022-11-15T03:27:33.123Z,974.60
2022-11-15T03:28:03.914Z,974.60
2022-11-15T03:28:34.971Z,974.60
2022-11-15T03:29:06.391Z,974.60
2022-11-15T03:29:37.435Z,974.60
2022-11-15T03:30:09.094Z,974.60
2022-11-15T03:30:38.903Z,974.70
2022-11-15T03:31:49.757Z,974.70
2022-11-15T03:32:13.814Z,974.80
2022-11-15T03:32:49.224Z,974.60
2022-11-15T03:33:14.371Z,974.60
2022-11-15T03:33:44.958Z,974.60
2022-11-15T03:34:17.269Z,974.60
2022-11-15T03:34:47.037Z,974.70
2022-11-15T03:35:18.419Z,974.70
2022-11-15T03:35:49.159Z,974.60
2022-11-15T03:36:20.158Z,974.60
2022-11-15T03:36:51.543Z,974.70
2022-11-15T03:37:27.966Z,974.70
2022-11-15T03:38:10.545Z,974.70
2022-11-15T03:38:24.771Z,974.70
2022-11-15T03:38:55.483Z,974.60
2022-11-15T03:39:26.061Z,974.50
2022-11-15T03:39:57.210Z,974.50
2022-11-15T03:40:28.372Z,974.60
2022-11-15T03:40:59.139Z,974.60
2022-11-15T03:41:32.199Z,974.40
2022-11-15T03:42:02.518Z,974.40
2022-11-15T03:42:33.434Z,974.60
2022-11-15T03:43:03.844Z,974.60
2022-11-15T03:43:34.411Z,974.70
2022-11-15T03:44:05.391Z,974.70
2022-11-15T03:44:52.952Z,974.60
2022-11-15T03:45:08.101Z,974.60
2022-11-15T03:45:38.431Z,974.70
2022-11-15T03:46:09.456Z,974.70
2022-11-15T03:46:39.900Z,974.60
2022-11-15T03:47:12.677Z,974.60
2022-11-15T03:47:43.315Z,974.60
2022-11-15T03:48:13.584Z,974.60
2022-11-15T03:48:44.113Z,974.40
2022-11-15T03:49:14.952Z,974.40
2022-11-15T03:49:46.171Z,974.30
2022-11-15T03:50:17.460Z,974.30
2022-11-15T03:50:48.269Z,974.40
2022-11-15T03:51:19.237Z,974.40
2022-11-15T03:51:50.056Z,974.60
2022-11-15T03:52:22.780Z,974.60
2022-11-15T03:52:53.451Z,974.50
2022-11-15T03:53:24.450Z,974.50
2022-11-15T03:53:54.798Z,974.60
2022-11-15T03:54:24.930Z,974.60
2022-11-15T03:55:14.242Z,974.50
2022-11-15T03:55:28.289Z,974.60
2022-11-15T03:55:58.365Z,974.60
2022-11-15T03:56:29.767Z,974.50
2022-11-15T03:57:00.102Z,974.50
2022-11-15T03:57:31.829Z,974.50
2022-11-15T03:58:03.215Z,974.50
2022-11-15T03:58:33.803Z,974.50
2022-11-15T03:59:04.558Z,974.50
2022-11-15T03:59:35.490Z,974.50
2022-11-15T04:00:09.607Z,974.50
2022-11-15T04:00:37.424Z,974.50
2022-11-15T04:01:08.428Z,974.50
2022-11-15T04:01:43.513Z,974.40
2022-11-15T04:02:10.142Z,974.40
2022-11-15T04:02:41.912Z,974.50
2022-11-15T04:03:13.786Z,974.50
2022-11-15T04:03:44.665Z,974.50
2022-11-15T04:04:14.851Z,974.50
2022-11-15T04:04:45.635Z,974.40
2022-11-15T04:05:16.180Z,974.40
2022-11-15T04:05:48.385Z,974.50
2022-11-15T04:06:18.389Z,974.50
2022-11-15T04:06:49.196Z,974.60
2022-11-15T04:07:20.277Z,974.60
2022-11-15T04:07:52.094Z,974.60
2022-11-15T04:08:24.277Z,974.60
2022-11-15T04:08:53.934Z,974.40
2022-11-15T04:09:25.214Z,974.40
2022-11-15T04:09:55.241Z,974.50
2022-11-15T04:10:28.384Z,974.50
2022-11-15T04:10:57.138Z,974.50
2022-11-15T04:11:28.437Z,974.70
2022-11-15T04:11:59.559Z,974.70
2022-11-15T04:12:30.267Z,974.70
2022-11-15T04:13:02.502Z,974.70
2022-11-15T04:13:33.959Z,974.50
2022-11-15T04:14:04.581Z,974.50
2022-11-15T04:14:34.418Z,974.50
2022-11-15T04:15:06.413Z,974.50
2022-11-15T04:15:36.197Z,974.50
2022-11-15T04:16:07.280Z,974.50
2022-11-15T04:16:42.614Z,974.60
2022-11-15T04:17:09.263Z,974.60
2022-11-15T04:17:40.266Z,974.60
2022-11-15T04:18:11.333Z,974.60
2022-11-15T04:18:43.689Z,974.70
2022-11-15T04:19:13.989Z,974.70
2022-11-15T04:19:44.607Z,974.50
2022-11-15T04:20:15.694Z,974.50
2022-11-15T04:20:46.318Z,974.60
2022-11-15T04:21:34.430Z,974.40
2022-11-15T04:21:48.393Z,974.40
2022-11-15T04:22:19.276Z,974.40
2022-11-15T04:22:50.399Z,974.50
2022-11-15T04:23:21.206Z,974.50
2022-11-15T04:23:53.843Z,974.50
2022-11-15T04:24:24.345Z,974.50
2022-11-15T04:24:54.598Z,974.40
2022-11-15T04:25:56.834Z,974.50
2022-11-15T04:26:27.566Z,974.70
2022-11-15T04:26:58.462Z,974.70
2022-11-15T04:27:29.220Z,974.50
2022-11-15T04:28:00.305Z,974.50
2022-11-15T04:28:31.298Z,974.40
2022-11-15T04:29:03.495Z,974.40
2022-11-15T04:29:34.172Z,974.30
2022-11-15T04:30:04.751Z,974.30
2022-11-15T04:30:35.785Z,974.60
2022-11-15T04:31:06.406Z,974.60
2022-11-15T04:31:37.642Z,974.60
2022-11-15T04:32:13.600Z,974.60
2022-11-15T04:32:40.580Z,974.50
2022-11-15T04:33:10.762Z,974.50
2022-11-15T04:33:41.256Z,974.50
2022-11-15T04:34:14.071Z,974.50
2022-11-15T04:34:44.084Z,974.40
2022-11-15T04:35:14.668Z,974.40
2022-11-15T04:35:45.473Z,974.70
2022-11-15T04:36:16.652Z,974.70
2022-11-15T04:36:47.818Z,974.19
2022-11-15T04:37:18.437Z,974.19
2022-11-15T04:37:49.693Z,974.30
2022-11-15T04:38:21.130Z,974.30
2022-11-15T04:39:08.597Z,974.40
2022-11-15T04:39:23.640Z,974.40
2022-11-15T04:39:54.378Z,974.30
2022-11-15T04:40:25.928Z,974.30
2022-11-15T04:40:55.432Z,974.40
2022-11-15T04:41:31.460Z,974.50
2022-11-15T04:41:57.318Z,974.50
2022-11-15T04:42:28.441Z,974.19
2022-11-15T04:43:03.614Z,974.19
2022-11-15T04:43:30.681Z,974.19
2022-11-15T04:44:01.255Z,974.19
2022-11-15T04:44:34.181Z,974.09
2022-11-15T04:45:05.508Z,974.09
2022-11-15T04:45:35.342Z,974.19
2022-11-15T04:46:05.475Z,974.19
2022-11-15T04:46:36.340Z,974.19
2022-11-15T04:47:07.695Z,974.19
2022-11-15T04:47:55.434Z,974.19
2022-11-15T04:48:09.310Z,974.19
2022-11-15T04:48:40.905Z,974.19
2022-11-15T04:49:11.322Z,974.19
2022-11-15T04:49:44.030Z,974.30
2022-11-15T04:50:14.945Z,974.30
2022-11-15T04:50:45.121Z,974.50
2022-11-15T04:51:15.510Z,974.50
2022-11-15T04:51:46.445Z,974.30
2022-11-15T04:52:17.847Z,974.30
2022-11-15T04:52:48.700Z,974.30
2022-11-15T04:53:19.419Z,974.30
2022-11-15T04:53:50.455Z,974.50
2022-11-15T04:54:21.512Z,974.50
2022-11-15T04:54:54.094Z,974.50
2022-11-15T04:55:24.393Z,974.50
2022-11-15T04:55:55.098Z,974.40
2022-11-15T04:56:25.916Z,974.19
2022-11-15T04:56:56.646Z,974.19
2022-11-15T04:57:27.999Z,974.50
2022-11-15T04:57:58.584Z,974.50
2022-11-15T04:58:29.706Z,974.30
2022-11-15T04:59:00.666Z,974.30
2022-11-15T04:59:31.582Z,974.09
2022-11-15T05:00:02.880Z,974.09
2022-11-15T05:00:33.551Z,974.30
2022-11-15T05:01:04.862Z,974.30
2022-11-15T05:01:39.522Z,974.30
2022-11-15T05:02:08.156Z,974.30
2022-11-15T05:02:38.270Z,974.40
2022-11-15T05:03:08.981Z,974.40
2022-11-15T05:03:39.460Z,974.30
2022-11-15T05:04:10.528Z,974.30
2022-11-15T05:04:41.436Z,974.30
2022-11-15T05:05:12.541Z,974.30
2022-11-15T05:05:43.826Z,974.40
2022-11-15T05:06:14.770Z,974.40
2022-11-15T05:06:45.357Z,974.40
2022-11-15T05:07:18.026Z,974.40
2022-11-15T05:07:48.313Z,974.09
2022-11-15T05:08:19.044Z,974.09
2022-11-15T05:08:49.532Z,974.60
2022-11-15T05:09:20.602Z,974.60
2022-11-15T05:09:51.598Z,974.19
2022-11-15T05:10:22.491Z,974.19
2022-11-15T05:11:10.667Z,974.30
2022-11-15T05:11:24.425Z,974.30
2022-11-15T05:11:56.595Z,974.50
2022-11-15T05:12:27.067Z,974.40
2022-11-15T05:12:58.932Z,974.40
2022-11-15T05:13:29.318Z,974.40
2022-11-15T05:13:59.589Z,974.40
2022-11-15T05:15:02.356Z,974.19
2022-11-15T05:15:32.323Z,974.19
2022-11-15T05:16:07.697Z,974.19
2022-11-15T05:16:34.738Z,974.09
2022-11-15T05:17:09.097Z,974.09
2022-11-15T05:17:37.917Z,974.19
2022-11-15T05:18:08.368Z,974.19
2022-11-15T05:18:38.791Z,974.30
2022-11-15T05:19:09.530Z,974.30
2022-11-15T05:19:40.548Z,974.09
2022-11-15T05:20:12.181Z,974.09
2022-11-15T05:20:42.481Z,974.19
2022-11-15T05:21:13.591Z,974.19
2022-11-15T05:21:44.590Z,974.19
2022-11-15T05:22:17.939Z,974.19
2022-11-15T05:22:48.246Z,974.30
2022-11-15T05:23:18.272Z,974.30
2022-11-15T05:23:49.067Z,974.40
2022-11-15T05:24:19.828Z,974.40
2022-11-15T05:25:21.312Z,974.30
2022-11-15T05:25:52.405Z,974.30
2022-11-15T05:26:23.493Z,974.30
2022-11-15T05:26:54.696Z,974.50
2022-11-15T05:27:26.429Z,974.19
2022-11-15T05:27:58.322Z,974.19
2022-11-15T05:28:28.429Z,974.09
2022-11-15T05:28:58.921Z,974.09
2022-11-15T05:29:29.523Z,974.40
2022-11-15T05:30:01.055Z,974.40
2022-11-15T05:30:31.704Z,974.30
2022-11-15T05:31:02.993Z,974.30
2022-11-15T05:31:33.748Z,974.09
2022-11-15T05:32:04.858Z,974.09
2022-11-15T05:32:36.207Z,974.19
2022-11-15T05:33:07.794Z,974.19
2022-11-15T05:33:39.286Z,974.30
2022-11-15T05:34:09.256Z,974.30
2022-11-15T05:34:39.428Z,974.19
2022-11-15T05:35:11.050Z,974.19
2022-11-15T05:35:41.785Z,974.30
2022-11-15T05:36:12.893Z,974.30
2022-11-15T05:36:43.942Z,974.30
2022-11-15T05:37:14.759Z,974.30
2022-11-15T05:37:46.772Z,974.19
2022-11-15T05:38:17.593Z,974.19
2022-11-15T05:38:48.261Z,973.99
2022-11-15T05:39:18.968Z,973.99
2022-11-15T05:39:49.662Z,974.09
2022-11-15T05:40:20.883Z,974.09
2022-11-15T05:40:51.448Z,974.09
2022-11-15T05:41:22.419Z,974.09
2022-11-15T05:41:53.810Z,974.30
2022-11-15T05:42:25.049Z,974.30
2022-11-15T05:42:57.012Z,974.19
2022-11-15T05:43:28.637Z,974.09
2022-11-15T05:43:58.877Z,974.09
2022-11-15T05:44:29.087Z,974.30
2022-11-15T05:45:00.200Z,974.30
2022-11-15T05:45:31.098Z,974.19
2022-11-15T05:46:01.828Z,974.19
2022-11-15T05:46:32.762Z,974.40
2022-11-15T05:47:04.101Z,974.40
2022-11-15T05:47:35.729Z,974.09
2022-11-15T05:48:06.109Z,974.09
2022-11-15T05:48:38.070Z,974.19
2022-11-15T05:49:08.360Z,974.19
2022-11-15T05:49:44.218Z,974.19
2022-11-15T05:50:10.107Z,974.19
2022-11-15T05:50:41.626Z,973.99
2022-11-15T05:51:11.703Z,973.99
2022-11-15T05:51:43.107Z,974.40
2022-11-15T05:52:13.526Z,974.40
2022-11-15T05:52:44.531Z,974.09
2022-11-15T05:53:16.810Z,974.09
2022-11-15T05:53:48.392Z,974.19
2022-11-15T05:54:18.354Z,974.19
2022-11-15T05:54:48.996Z,974.30
2022-11-15T05:55:19.921Z,974.30
2022-11-15T05:55:55.889Z,974.30
2022-11-15T05:56:21.788Z,974.30
2022-11-15T05:56:52.894Z,974.19
2022-11-15T05:57:23.605Z,974.19
2022-11-15T05:57:54.783Z,974.09
2022-11-15T05:58:27.255Z,974.09
2022-11-15T05:58:59.653Z,974.09
2022-11-15T05:59:28.264Z,974.30
2022-11-15T05:59:59.173Z,974.30
2022-11-15T06:00:31.535Z,974.19
2022-11-15T06:01:00.895Z,974.19
2022-11-15T06:01:36.944Z,974.09
2022-11-15T06:02:02.880Z,974.09
2022-11-15T06:02:35.463Z,974.09
2022-11-15T06:03:09.359Z,974.09
2022-11-15T06:03:36.348Z,974.09
2022-11-15T06:04:07.626Z,974.09
2022-11-15T06:04:38.384Z,973.99
2022-11-15T06:05:09.046Z,973.99
2022-11-15T06:05:40.127Z,974.30
2022-11-15T06:06:15.201Z,974.30
2022-11-15T06:06:41.733Z,973.99
2022-11-15T06:07:12.979Z,973.99
2022-11-15T06:07:48.632Z,973.99
2022-11-15T06:08:52.496Z,974.19
2022-11-15T06:09:17.816Z,974.19
2022-11-15T06:09:49.098Z,974.40
2022-11-15T06:10:37.614Z,974.19
2022-11-15T06:10:49.537Z,974.19
2022-11-15T06:11:20.792Z,974.19
2022-11-15T06:11:51.786Z,974.40
2022-11-15T06:12:22.750Z,974.40
2022-11-15T06:12:54.001Z,974.30
2022-11-15T06:13:25.483Z,974.30
2022-11-15T06:13:56.414Z,974.19
2022-11-15T06:14:28.337Z,974.30
2022-11-15T06:14:58.686Z,974.30
2022-11-15T06:15:29.624Z,974.30
2022-11-15T06:15:59.903Z,974.30
2022-11-15T06:16:31.772Z,974.19
2022-11-15T06:17:03.243Z,974.19
2022-11-15T06:17:33.072Z,974.30
2022-11-15T06:18:03.744Z,974.30
2022-11-15T06:18:35.095Z,974.19
2022-11-15T06:19:23.867Z,974.19
2022-11-15T06:19:37.859Z,974.09
2022-11-15T06:20:27.912Z,974.30
2022-11-15T06:20:39.266Z,974.30
2022-11-15T06:21:09.881Z,974.30
2022-11-15T06:21:40.948Z,974.30
2022-11-15T06:22:11.849Z,974.30
2022-11-15T06:22:42.795Z,974.40
2022-11-15T06:23:14.078Z,974.40
2022-11-15T06:23:44.856Z,974.30
2022-11-15T06:24:15.812Z,974.30
2022-11-15T06:24:47.877Z,974.09
2022-11-15T06:25:18.768Z,974.09
2022-11-15T06:25:49.725Z,974.30
2022-11-15T06:28:59.623Z,974.30
2022-11-15T06:29:28.099Z,974.19
2022-11-15T06:29:58.164Z,974.19
2022-11-15T06:30:28.744Z,973.99
2022-11-15T06:30:59.492Z,973.99
2022-11-15T06:31:30.086Z,974.09
2022-11-15T06:32:01.057Z,974.09
2022-11-15T06:32:32.175Z,974.19
2022-11-15T06:33:03.132Z,974.19
2022-11-15T06:33:34.551Z,974.19
2022-11-15T06:34:09.923Z,974.19
2022-11-15T06:34:38.480Z,974.30
2022-11-15T06:35:08.406Z,974.30
2022-11-15T06:35:38.919Z,974.19
2022-11-15T06:36:14.563Z,974.19
2022-11-15T06:36:45.510Z,974.19
2022-11-15T06:37:12.256Z,974.19
2022-11-15T06:37:42.112Z,974.50